createdAt,value
2023-02-15T00:00:34.993Z,19.80
2023-02-15T00:01:34.993Z,18.40
2023-02-15T00:02:34.960Z,18.60
2023-02-15T00:03:34.970Z,17.80
2023-02-15T00:04:35.045Z,23.90
2023-02-15T00:05:34.947Z,17.20
2023-02-15T00:06:34.970Z,17.50
2023-02-15T00:07:34.915Z,20.80
2023-02-15T00:08:34.903Z,23.00
2023-02-15T00:09:34.929Z,17.80
2023-02-15T00:10:34.884Z,20.60
2023-02-15T00:11:34.888Z,21.40
2023-02-15T00:12:34.861Z,23.80
2023-02-15T00:13:34.855Z,20.40
2023-02-15T00:14:34.835Z,18.90
2023-02-15T00:15:34.844Z,20.90
2023-02-15T00:16:34.881Z,20.10
2023-02-15T00:17:34.804Z,18.60
2023-02-15T00:18:34.804Z,25.90
2023-02-15T00:19:34.801Z,16.50
2023-02-15T00:20:34.779Z,25.00
2023-02-15T00:21:34.795Z,16.70
2023-02-15T00:22:34.757Z,15.90
2023-02-15T00:23:34.747Z,19.20
2023-02-15T00:24:34.739Z,21.40
2023-02-15T00:25:34.744Z,20.80
2023-02-15T00:26:34.738Z,20.70
2023-02-15T00:27:34.752Z,19.30
2023-02-15T00:28:34.695Z,23.60
2023-02-15T00:29:34.696Z,17.50
2023-02-15T00:30:34.701Z,19.20
2023-02-15T00:31:34.855Z,19.20
2023-02-15T00:32:34.653Z,18.80
2023-02-15T00:33:34.637Z,18.30
2023-02-15T00:34:34.631Z,18.90
2023-02-15T00:35:34.632Z,20.00
2023-02-15T00:36:34.635Z,21.00
2023-02-15T00:37:34.602Z,20.30
2023-02-15T00:38:34.579Z,17.80
2023-02-15T00:39:34.603Z,15.20
2023-02-15T00:40:34.636Z,21.40
2023-02-15T00:41:34.599Z,18.40
2023-02-15T00:42:34.555Z,19.80
2023-02-15T00:43:34.625Z,22.10
2023-02-15T00:44:34.575Z,19.80
2023-02-15T00:45:34.521Z,19.70
2023-02-15T00:46:34.590Z,25.40
2023-02-15T00:47:34.514Z,23.90
2023-02-15T00:48:34.503Z,23.70
2023-02-15T00:49:34.530Z,16.40
2023-02-15T00:50:34.501Z,21.70
2023-02-15T00:51:34.495Z,15.50
2023-02-15T00:52:34.455Z,23.40
2023-02-15T00:53:34.433Z,27.40
2023-02-15T00:54:34.455Z,20.20
2023-02-15T00:55:34.419Z,20.60
2023-02-15T00:56:34.409Z,19.10
2023-02-15T00:57:34.502Z,20.70
2023-02-15T00:58:34.378Z,17.70
2023-02-15T00:59:34.370Z,22.20
2023-02-15T01:00:34.378Z,24.30
2023-02-15T01:01:34.414Z,19.30
2023-02-15T01:02:34.334Z,18.80
2023-02-15T01:03:34.330Z,22.10
2023-02-15T01:04:34.342Z,20.00
2023-02-15T01:05:34.335Z,20.60
2023-02-15T01:06:34.314Z,22.60
2023-02-15T01:07:34.288Z,23.80
2023-02-15T01:08:34.281Z,21.70
2023-02-15T01:09:34.270Z,21.00
2023-02-15T01:10:34.279Z,19.40
2023-02-15T01:11:34.276Z,22.00
2023-02-15T01:12:34.247Z,22.40
2023-02-15T01:13:34.229Z,17.90
2023-02-15T01:14:34.221Z,18.60
2023-02-15T01:15:34.237Z,17.10
2023-02-15T01:16:34.311Z,23.50
2023-02-15T01:17:34.192Z,18.50
2023-02-15T01:18:34.185Z,21.30
2023-02-15T01:19:34.165Z,19.40
2023-02-15T01:20:34.171Z,19.90
2023-02-15T01:21:34.178Z,20.80
2023-02-15T01:22:34.139Z,22.60
2023-02-15T01:23:34.148Z,20.30
2023-02-15T01:24:34.116Z,24.20
2023-02-15T01:25:34.102Z,19.30
2023-02-15T01:26:34.213Z,21.40
2023-02-15T01:27:34.111Z,22.80
2023-02-15T01:28:34.070Z,19.50
2023-02-15T01:29:34.101Z,23.40
2023-02-15T01:30:34.054Z,25.50
2023-02-15T01:31:34.110Z,20.50
2023-02-15T01:32:34.036Z,17.40
2023-02-15T01:33:34.024Z,22.10
2023-02-15T01:34:34.007Z,18.50
2023-02-15T01:35:34.022Z,25.00
2023-02-15T01:36:34.049Z,23.20
2023-02-15T01:37:33.983Z,21.00
2023-02-15T01:38:33.984Z,22.40
2023-02-15T01:39:33.959Z,20.00
2023-02-15T01:40:33.948Z,19.30
2023-02-15T01:41:33.952Z,22.20
2023-02-15T01:42:33.928Z,18.50
2023-02-15T01:43:33.917Z,23.10
2023-02-15T01:44:33.916Z,19.50
2023-02-15T01:45:33.915Z,20.50
2023-02-15T01:46:34.033Z,21.90
2023-02-15T01:47:33.950Z,26.60
2023-02-15T01:48:33.868Z,26.10
2023-02-15T01:49:33.871Z,25.20
2023-02-15T01:50:33.901Z,20.40
2023-02-15T01:51:33.859Z,20.00
2023-02-15T01:52:33.820Z,20.40
2023-02-15T01:53:33.811Z,20.00
2023-02-15T01:54:33.837Z,20.40
2023-02-15T01:55:33.828Z,18.20
2023-02-15T01:56:33.840Z,19.50
2023-02-15T01:57:33.768Z,23.20
2023-02-15T01:58:33.764Z,23.00
2023-02-15T01:59:33.742Z,20.50
2023-02-15T02:00:33.750Z,21.90
2023-02-15T02:01:33.873Z,22.70
2023-02-15T02:02:33.728Z,25.10
2023-02-15T02:03:33.706Z,19.10
2023-02-15T02:04:33.742Z,25.10
2023-02-15T02:05:33.728Z,23.30
2023-02-15T02:06:33.725Z,21.10
2023-02-15T02:07:33.666Z,22.80
2023-02-15T02:08:33.657Z,27.90
2023-02-15T02:09:33.640Z,24.40
2023-02-15T02:10:33.638Z,22.10
2023-02-15T02:11:33.623Z,21.50
2023-02-15T02:12:33.687Z,22.60
2023-02-15T02:13:33.672Z,23.50
2023-02-15T02:14:33.608Z,27.60
2023-02-15T02:15:33.644Z,21.30
2023-02-15T02:16:33.574Z,23.50
2023-02-15T02:17:33.610Z,21.90
2023-02-15T02:18:33.564Z,27.80
2023-02-15T02:19:33.539Z,22.90
2023-02-15T02:20:33.537Z,22.30
2023-02-15T02:21:33.523Z,23.30
2023-02-15T02:22:33.529Z,29.60
2023-02-15T02:23:33.501Z,26.90
2023-02-15T02:24:33.502Z,24.70
2023-02-15T02:25:33.489Z,26.40
2023-02-15T02:26:33.484Z,28.00
2023-02-15T02:27:33.503Z,27.60
2023-02-15T02:28:33.451Z,28.00
2023-02-15T02:29:33.500Z,25.80
2023-02-15T02:30:33.585Z,26.20
2023-02-15T02:31:33.613Z,28.40
2023-02-15T02:32:33.474Z,27.80
2023-02-15T02:33:33.396Z,26.40
2023-02-15T02:34:33.398Z,32.80
2023-02-15T02:35:33.374Z,21.90
2023-02-15T02:36:33.380Z,29.60
2023-02-15T02:37:33.473Z,25.40
2023-02-15T02:38:33.406Z,27.00
2023-02-15T02:39:33.339Z,28.20
2023-02-15T02:40:33.326Z,27.10
2023-02-15T02:41:33.322Z,32.40
2023-02-15T02:42:33.404Z,28.80
2023-02-15T02:43:33.340Z,28.90
2023-02-15T02:44:33.286Z,28.30
2023-02-15T02:45:33.423Z,36.70
2023-02-15T02:46:33.482Z,29.70
2023-02-15T02:47:33.317Z,26.30
2023-02-15T02:48:33.309Z,26.30
2023-02-15T02:49:33.244Z,29.20
2023-02-15T02:50:33.266Z,36.00
2023-02-15T02:51:33.230Z,26.60
2023-02-15T02:52:33.228Z,33.10
2023-02-15T02:53:33.206Z,32.00
2023-02-15T02:54:33.324Z,32.20
2023-02-15T02:55:33.268Z,35.40
2023-02-15T02:56:33.213Z,33.00
2023-02-15T02:57:33.169Z,31.30
2023-02-15T02:58:33.261Z,28.20
2023-02-15T02:59:33.465Z,32.70
2023-02-15T03:00:33.198Z,29.20
2023-02-15T03:01:33.193Z,29.10
2023-02-15T03:02:33.218Z,33.60
2023-02-15T03:03:33.096Z,30.30
2023-02-15T03:04:33.094Z,28.60
2023-02-15T03:05:33.101Z,29.20
2023-02-15T03:06:33.072Z,31.00
2023-02-15T03:07:33.070Z,32.30
2023-02-15T03:08:33.077Z,28.00
2023-02-15T03:09:33.032Z,28.70
2023-02-15T03:10:33.034Z,29.40
2023-02-15T03:11:33.017Z,31.10
2023-02-15T03:12:33.023Z,32.60
2023-02-15T03:13:33.083Z,32.00
2023-02-15T03:14:33.001Z,30.90
2023-02-15T03:15:33.031Z,29.20
2023-02-15T03:16:33.038Z,30.10
2023-02-15T03:17:33.068Z,27.10
2023-02-15T03:18:32.986Z,31.90
2023-02-15T03:19:32.958Z,30.80
2023-02-15T03:20:32.944Z,30.90
2023-02-15T03:21:32.930Z,34.10
2023-02-15T03:22:32.954Z,31.70
2023-02-15T03:23:32.898Z,30.90
2023-02-15T03:24:32.890Z,31.00
2023-02-15T03:25:32.888Z,33.30
2023-02-15T03:26:32.865Z,27.90
2023-02-15T03:27:32.884Z,32.90
2023-02-15T03:28:32.850Z,35.30
2023-02-15T03:29:32.838Z,29.90
2023-02-15T03:30:32.830Z,31.50
2023-02-15T03:31:32.959Z,31.00
2023-02-15T03:32:32.817Z,33.10
2023-02-15T03:33:32.804Z,28.00
2023-02-15T03:34:32.788Z,26.90
2023-02-15T03:35:32.767Z,32.30
2023-02-15T03:36:32.764Z,33.70
2023-02-15T03:37:32.779Z,30.60
2023-02-15T03:38:32.747Z,24.70
2023-02-15T03:39:32.747Z,35.90
2023-02-15T03:40:32.724Z,34.90
2023-02-15T03:41:32.770Z,27.40
2023-02-15T03:42:32.717Z,34.90
2023-02-15T03:43:32.713Z,30.90
2023-02-15T03:44:32.726Z,34.40
2023-02-15T03:45:32.677Z,26.40
2023-02-15T03:46:32.691Z,29.30
2023-02-15T03:47:32.692Z,25.80
2023-02-15T03:48:32.667Z,24.70
2023-02-15T03:49:32.704Z,31.50
2023-02-15T03:50:32.638Z,33.90
2023-02-15T03:51:32.614Z,35.00
2023-02-15T03:52:32.616Z,33.50
2023-02-15T03:53:32.627Z,26.40
2023-02-15T03:54:32.703Z,30.10
2023-02-15T03:55:32.570Z,31.10
2023-02-15T03:56:32.567Z,34.70
2023-02-15T03:57:32.557Z,31.10
2023-02-15T03:58:32.559Z,34.80
2023-02-15T03:59:32.551Z,26.70
2023-02-15T04:00:32.562Z,33.20
2023-02-15T04:01:32.649Z,32.60
2023-02-15T04:02:32.499Z,32.40
2023-02-15T04:03:32.524Z,33.10
2023-02-15T04:04:32.489Z,34.60
2023-02-15T04:05:32.471Z,29.80
2023-02-15T04:06:32.463Z,30.20
2023-02-15T04:07:32.445Z,29.30
2023-02-15T04:08:32.471Z,29.00
2023-02-15T04:09:32.426Z,29.70
2023-02-15T04:10:32.423Z,27.30
2023-02-15T04:11:32.411Z,27.10
2023-02-15T04:12:32.483Z,30.20
2023-02-15T04:13:32.435Z,30.60
2023-02-15T04:14:32.391Z,29.90
2023-02-15T04:15:32.366Z,32.10
2023-02-15T04:16:32.367Z,28.90
2023-02-15T04:17:32.349Z,26.10
2023-02-15T04:18:38.382Z,32.80
2023-02-15T04:19:32.956Z,31.50
2023-02-15T04:20:32.958Z,29.70
2023-02-15T04:21:32.307Z,29.00
2023-02-15T04:22:32.320Z,29.10
2023-02-15T04:23:32.283Z,25.70
2023-02-15T04:24:32.295Z,26.90
2023-02-15T04:25:32.273Z,33.80
2023-02-15T04:26:32.257Z,32.40
2023-02-15T04:27:32.287Z,26.70
2023-02-15T04:28:32.246Z,26.10
2023-02-15T04:29:32.288Z,28.60
2023-02-15T04:30:32.261Z,29.30
2023-02-15T04:31:32.355Z,30.10
2023-02-15T04:32:32.220Z,29.10
2023-02-15T04:33:32.189Z,28.20
2023-02-15T04:34:32.204Z,30.70
2023-02-15T04:35:32.169Z,27.60
2023-02-15T04:36:32.165Z,27.90
2023-02-15T04:37:32.211Z,26.60
2023-02-15T04:38:32.144Z,29.30
2023-02-15T04:39:32.125Z,24.70
2023-02-15T04:40:32.132Z,26.20
2023-02-15T04:41:32.106Z,29.60
2023-02-15T04:42:32.129Z,27.80
2023-02-15T04:43:32.111Z,33.80
2023-02-15T04:44:32.097Z,30.90
2023-02-15T04:45:32.118Z,29.90
2023-02-15T04:46:32.063Z,27.80
2023-02-15T04:47:32.105Z,26.80
2023-02-15T04:48:32.067Z,26.70
2023-02-15T04:49:32.055Z,26.80
2023-02-15T04:50:32.033Z,28.80
2023-02-15T04:51:32.013Z,30.30
2023-02-15T04:52:32.029Z,29.30
2023-02-15T04:53:32.012Z,24.90
2023-02-15T04:54:31.990Z,27.90
2023-02-15T04:55:31.977Z,28.90
2023-02-15T04:56:31.977Z,35.50
2023-02-15T04:57:31.999Z,32.90
2023-02-15T04:58:31.952Z,28.80
2023-02-15T04:59:31.926Z,26.30
2023-02-15T05:00:31.953Z,33.10
2023-02-15T05:01:32.027Z,29.20
2023-02-15T05:02:31.920Z,29.30
2023-02-15T05:03:31.914Z,27.50
2023-02-15T05:04:31.963Z,30.20
2023-02-15T05:05:31.885Z,26.10
2023-02-15T05:06:31.867Z,25.60
2023-02-15T05:07:31.867Z,23.70
2023-02-15T05:08:31.880Z,23.20
2023-02-15T05:09:31.835Z,30.80
2023-02-15T05:10:31.832Z,29.50
2023-02-15T05:11:31.818Z,30.60
2023-02-15T05:12:31.831Z,34.70
2023-02-15T05:13:31.836Z,29.60
2023-02-15T05:14:31.793Z,29.80
2023-02-15T05:15:31.775Z,28.90
2023-02-15T05:16:31.804Z,28.90
2023-02-15T05:17:31.790Z,30.50
2023-02-15T05:18:31.772Z,24.20
2023-02-15T05:19:31.740Z,30.40
2023-02-15T05:20:31.731Z,34.00
2023-02-15T05:21:31.709Z,25.00
2023-02-15T05:22:31.734Z,27.40
2023-02-15T05:23:31.692Z,30.70
2023-02-15T05:24:31.697Z,28.00
2023-02-15T05:25:31.687Z,31.70
2023-02-15T05:26:31.671Z,24.90
2023-02-15T05:27:31.710Z,24.10
2023-02-15T05:28:31.646Z,26.40
2023-02-15T05:29:31.649Z,26.90
2023-02-15T05:30:31.910Z,24.50
2023-02-15T05:31:31.900Z,32.40
2023-02-15T05:32:31.795Z,25.00
2023-02-15T05:33:31.593Z,27.80
2023-02-15T05:34:31.604Z,28.00
2023-02-15T05:35:31.589Z,28.40
2023-02-15T05:36:31.570Z,25.30
2023-02-15T05:37:31.593Z,27.50
2023-02-15T05:38:31.549Z,27.00
2023-02-15T05:39:31.544Z,25.80
2023-02-15T05:40:31.569Z,33.70
2023-02-15T05:41:31.801Z,30.60
2023-02-15T05:42:32.449Z,30.50
2023-02-15T05:43:31.497Z,33.30
2023-02-15T05:44:31.488Z,26.50
2023-02-15T05:45:31.479Z,32.20
2023-02-15T05:46:31.495Z,26.90
2023-02-15T05:47:31.479Z,31.30
2023-02-15T05:48:31.472Z,28.90
2023-02-15T05:49:31.404Z,25.40
2023-02-15T05:50:31.430Z,27.40
2023-02-15T05:51:31.480Z,29.00
2023-02-15T05:52:31.410Z,31.40
2023-02-15T05:53:31.409Z,27.70
2023-02-15T05:54:31.350Z,30.20
2023-02-15T05:55:31.387Z,28.40
2023-02-15T05:56:31.339Z,33.70
2023-02-15T05:57:31.327Z,26.50
2023-02-15T05:58:31.307Z,27.90
2023-02-15T05:59:31.298Z,30.80
2023-02-15T06:00:31.282Z,27.50
2023-02-15T06:01:31.269Z,33.20
2023-02-15T06:02:31.312Z,31.40
2023-02-15T06:03:31.290Z,32.60
2023-02-15T06:04:31.240Z,33.00
2023-02-15T06:05:31.233Z,31.80
2023-02-15T06:06:31.218Z,32.30
2023-02-15T06:07:31.214Z,36.20
2023-02-15T06:08:31.211Z,32.20
2023-02-15T06:09:31.197Z,36.90
2023-02-15T06:10:31.181Z,30.20
2023-02-15T06:11:31.172Z,34.20
2023-02-15T06:12:31.167Z,30.20
2023-02-15T06:13:31.165Z,30.80
2023-02-15T06:14:31.144Z,30.30
2023-02-15T06:15:31.172Z,29.00
2023-02-15T06:16:31.118Z,36.80
2023-02-15T06:17:31.126Z,31.80
2023-02-15T06:18:31.118Z,31.80
2023-02-15T06:19:31.091Z,35.70
2023-02-15T06:20:31.084Z,27.30
2023-02-15T06:21:31.254Z,30.90
2023-02-15T06:22:31.069Z,31.60
2023-02-15T06:23:31.088Z,29.00
2023-02-15T06:24:31.056Z,33.30
2023-02-15T06:25:31.049Z,28.10
2023-02-15T06:26:31.020Z,28.30
2023-02-15T06:27:31.025Z,31.30
2023-02-15T06:28:31.041Z,31.30
2023-02-15T06:29:31.006Z,36.30
2023-02-15T06:30:31.040Z,26.80
2023-02-15T06:31:31.168Z,31.90
2023-02-15T06:32:30.974Z,34.00
2023-02-15T06:33:30.972Z,33.60
2023-02-15T06:34:30.949Z,35.80
2023-02-15T06:35:30.932Z,31.60
2023-02-15T06:36:30.949Z,31.90
2023-02-15T06:37:30.918Z,32.20
2023-02-15T06:38:30.920Z,31.50
2023-02-15T06:39:30.907Z,28.50
2023-02-15T06:40:30.877Z,34.30
2023-02-15T06:41:30.902Z,32.80
2023-02-15T06:42:30.885Z,30.50
2023-02-15T06:43:30.879Z,34.10
2023-02-15T06:44:30.844Z,26.50
2023-02-15T06:45:30.844Z,28.50
2023-02-15T06:46:30.902Z,24.40
2023-02-15T06:47:30.820Z,39.00
2023-02-15T06:48:30.855Z,29.10
2023-02-15T06:49:30.799Z,24.70
2023-02-15T06:50:30.794Z,31.90
2023-02-15T06:51:30.778Z,30.80
2023-02-15T06:52:30.793Z,29.20
2023-02-15T06:53:30.783Z,34.90
2023-02-15T06:54:30.747Z,30.20
2023-02-15T06:55:30.765Z,25.70
2023-02-15T06:56:30.723Z,29.80
2023-02-15T06:57:30.732Z,29.40
2023-02-15T06:58:30.738Z,32.30
2023-02-15T06:59:30.700Z,25.10
2023-02-15T07:00:30.686Z,28.50
2023-02-15T07:01:30.754Z,29.40
2023-02-15T07:02:30.673Z,34.70
2023-02-15T07:03:30.677Z,28.20
2023-02-15T07:04:30.691Z,29.30
2023-02-15T07:05:30.642Z,32.80
2023-02-15T07:06:30.633Z,35.80
2023-02-15T07:07:30.637Z,31.10
2023-02-15T07:08:30.613Z,29.10
2023-02-15T07:09:30.606Z,27.40
2023-02-15T07:10:30.618Z,35.10
2023-02-15T07:11:30.780Z,33.10
2023-02-15T07:12:30.563Z,28.00
2023-02-15T07:13:30.599Z,29.40
2023-02-15T07:14:30.539Z,24.40
2023-02-15T07:15:30.548Z,28.60
2023-02-15T07:16:30.610Z,25.50
2023-02-15T07:17:37.722Z,29.90
2023-02-15T07:18:30.520Z,26.60
2023-02-15T07:19:30.494Z,25.30
2023-02-15T07:20:30.537Z,32.40
2023-02-15T07:21:30.486Z,33.20
2023-02-15T07:22:30.467Z,27.10
2023-02-15T07:23:30.499Z,28.30
2023-02-15T07:24:30.445Z,32.10
2023-02-15T07:25:30.437Z,26.40
2023-02-15T07:26:30.426Z,30.10
2023-02-15T07:27:30.423Z,27.20
2023-02-15T07:28:30.409Z,32.40
2023-02-15T07:29:30.407Z,30.50
2023-02-15T07:30:30.472Z,35.80
2023-02-15T07:31:30.380Z,24.80
2023-02-15T07:32:30.397Z,29.20
2023-02-15T07:33:30.367Z,24.10
2023-02-15T07:34:30.360Z,31.70
2023-02-15T07:35:30.334Z,28.40
2023-02-15T07:36:30.332Z,26.60
2023-02-15T07:37:30.334Z,29.70
2023-02-15T07:38:30.312Z,28.70
2023-02-15T07:39:30.306Z,27.80
2023-02-15T07:40:30.300Z,30.90
2023-02-15T07:41:30.292Z,30.10
2023-02-15T07:42:30.267Z,31.30
2023-02-15T07:43:30.256Z,27.80
2023-02-15T07:44:30.265Z,26.70
2023-02-15T07:45:30.251Z,28.00
2023-02-15T07:46:30.322Z,25.70
2023-02-15T07:47:30.219Z,31.90
2023-02-15T07:48:30.218Z,33.60
2023-02-15T07:49:30.215Z,28.40
2023-02-15T07:50:30.260Z,24.70
2023-02-15T07:51:30.189Z,31.50
2023-02-15T07:52:30.178Z,36.40
2023-02-15T07:53:30.192Z,38.30
2023-02-15T07:54:30.160Z,29.70
2023-02-15T07:55:30.150Z,26.10
2023-02-15T07:56:31.747Z,32.10
2023-02-15T07:57:30.134Z,28.00
2023-02-15T07:58:30.117Z,33.00
2023-02-15T07:59:30.143Z,30.30
2023-02-15T08:00:30.086Z,37.70
2023-02-15T08:01:30.092Z,35.80
2023-02-15T08:02:30.123Z,34.70
2023-02-15T08:03:30.278Z,30.70
2023-02-15T08:04:30.052Z,32.00
2023-02-15T08:05:30.051Z,25.40
2023-02-15T08:06:30.032Z,32.70
2023-02-15T08:07:30.040Z,32.90
2023-02-15T08:08:30.070Z,30.10
2023-02-15T08:09:30.006Z,34.40
2023-02-15T08:10:30.029Z,32.40
2023-02-15T08:11:30.141Z,29.70
2023-02-15T08:12:29.974Z,34.90
2023-02-15T08:13:29.997Z,28.40
2023-02-15T08:14:29.947Z,27.10
2023-02-15T08:15:29.946Z,33.80
2023-02-15T08:16:29.982Z,29.30
2023-02-15T08:17:29.944Z,30.60
2023-02-15T08:18:29.925Z,33.50
2023-02-15T08:19:29.906Z,27.00
2023-02-15T08:20:29.899Z,31.40
2023-02-15T08:21:29.892Z,38.00
2023-02-15T08:22:29.867Z,32.40
2023-02-15T08:23:29.960Z,33.50
2023-02-15T08:24:29.872Z,29.60
2023-02-15T08:25:29.927Z,25.60
2023-02-15T08:26:29.842Z,33.50
2023-02-15T08:27:29.886Z,38.90
2023-02-15T08:28:29.871Z,31.90
2023-02-15T08:29:29.823Z,31.20
2023-02-15T08:30:29.954Z,29.30
2023-02-15T08:31:29.956Z,30.40
2023-02-15T08:32:29.772Z,28.00
2023-02-15T08:33:29.791Z,28.90
2023-02-15T08:34:29.747Z,36.10
2023-02-15T08:35:29.755Z,32.60
2023-02-15T08:36:29.734Z,35.60
2023-02-15T08:37:29.730Z,32.10
2023-02-15T08:38:29.716Z,30.40
2023-02-15T08:39:29.724Z,32.20
2023-02-15T08:40:29.702Z,27.90
2023-02-15T08:41:29.692Z,26.00
2023-02-15T08:42:29.673Z,25.70
2023-02-15T08:43:29.689Z,24.20
2023-02-15T08:44:29.692Z,29.90
2023-02-15T08:45:29.713Z,28.90
2023-02-15T08:46:29.631Z,33.90
2023-02-15T08:47:29.631Z,27.60
2023-02-15T08:48:29.624Z,29.00
2023-02-15T08:49:29.611Z,34.00
2023-02-15T08:50:29.598Z,29.20
2023-02-15T08:51:29.585Z,38.70
2023-02-15T08:52:29.567Z,35.80
2023-02-15T08:53:29.595Z,31.20
2023-02-15T08:54:29.575Z,30.30
2023-02-15T08:55:29.546Z,28.60
2023-02-15T08:56:29.529Z,32.60
2023-02-15T08:57:29.524Z,28.20
2023-02-15T08:58:29.522Z,34.00
2023-02-15T08:59:29.504Z,28.90
2023-02-15T09:00:29.494Z,34.40
2023-02-15T09:01:29.510Z,31.80
2023-02-15T09:02:30.098Z,29.30
2023-02-15T09:03:29.479Z,27.90
2023-02-15T09:04:29.461Z,31.80
2023-02-15T09:05:29.441Z,31.20
2023-02-15T09:06:29.432Z,30.20
2023-02-15T09:07:29.451Z,35.00
2023-02-15T09:08:29.433Z,30.10
2023-02-15T09:09:29.406Z,32.20
2023-02-15T09:10:29.402Z,37.30
2023-02-15T09:11:29.379Z,31.50
2023-02-15T09:12:29.366Z,31.40
2023-02-15T09:13:29.383Z,35.40
2023-02-15T09:14:29.379Z,24.40
2023-02-15T09:15:29.347Z,27.50
2023-02-15T09:16:29.432Z,31.70
2023-02-15T09:17:29.326Z,30.60
2023-02-15T09:18:29.322Z,32.50
2023-02-15T09:19:29.300Z,33.30
2023-02-15T09:20:29.287Z,35.50
2023-02-15T09:21:29.278Z,30.50
2023-02-15T09:22:29.288Z,33.00
2023-02-15T09:23:29.280Z,31.90
2023-02-15T09:24:29.254Z,30.10
2023-02-15T09:25:29.253Z,33.40
2023-02-15T09:26:29.238Z,34.50
2023-02-15T09:27:29.236Z,32.50
2023-02-15T09:28:29.240Z,30.90
2023-02-15T09:29:29.199Z,38.80
2023-02-15T09:30:29.298Z,28.50
2023-02-15T09:31:29.409Z,32.40
2023-02-15T09:32:29.171Z,27.40
2023-02-15T09:33:29.177Z,30.00
2023-02-15T09:34:29.144Z,28.00
2023-02-15T09:35:29.132Z,30.10
2023-02-15T09:36:29.145Z,29.20
2023-02-15T09:37:29.114Z,34.40
2023-02-15T09:38:29.119Z,29.60
2023-02-15T09:39:29.117Z,30.60
2023-02-15T09:40:29.097Z,25.20
2023-02-15T09:41:29.142Z,32.20
2023-02-15T09:42:29.062Z,25.50
2023-02-15T09:43:29.105Z,26.10
2023-02-15T09:44:29.047Z,27.70
2023-02-15T09:45:29.054Z,27.20
2023-02-15T09:46:29.027Z,27.50
2023-02-15T09:47:29.033Z,29.30
2023-02-15T09:48:29.015Z,22.00
2023-02-15T09:49:28.990Z,31.00
2023-02-15T09:50:28.984Z,26.90
2023-02-15T09:51:28.987Z,28.60
2023-02-15T09:52:28.975Z,30.50
2023-02-15T09:53:28.965Z,38.60
2023-02-15T09:54:28.938Z,30.00
2023-02-15T09:55:28.937Z,22.50
2023-02-15T09:56:28.924Z,20.10
2023-02-15T09:57:28.920Z,26.90
2023-02-15T09:58:28.939Z,27.00
2023-02-15T09:59:28.898Z,25.60
2023-02-15T10:00:28.887Z,25.20
2023-02-15T10:01:28.889Z,25.70
2023-02-15T10:02:28.852Z,26.40
2023-02-15T10:03:28.854Z,23.80
2023-02-15T10:04:28.897Z,24.10
2023-02-15T10:05:28.848Z,24.40
2023-02-15T10:06:28.814Z,25.10
2023-02-15T10:07:28.815Z,21.90
2023-02-15T10:08:28.817Z,32.50
2023-02-15T10:09:28.800Z,30.20
2023-02-15T10:10:28.829Z,26.20
2023-02-15T10:11:28.777Z,26.50
2023-02-15T10:12:28.752Z,29.90
2023-02-15T10:13:29.628Z,27.40
2023-02-15T10:14:28.827Z,24.10
2023-02-15T10:15:28.728Z,27.20
2023-02-15T10:16:28.802Z,30.00
2023-02-15T10:17:28.740Z,28.00
2023-02-15T10:18:28.693Z,27.40
2023-02-15T10:19:28.777Z,23.90
2023-02-15T10:20:28.720Z,29.50
2023-02-15T10:21:28.662Z,31.40
2023-02-15T10:22:28.686Z,28.20
2023-02-15T10:23:28.650Z,32.50
2023-02-15T10:24:28.744Z,27.70
2023-02-15T10:25:28.657Z,24.00
2023-02-15T10:26:28.688Z,26.20
2023-02-15T10:27:28.609Z,25.00
2023-02-15T10:28:28.603Z,28.70
2023-02-15T10:29:28.631Z,27.00
2023-02-15T10:30:30.297Z,23.30
2023-02-15T10:31:28.853Z,20.80
2023-02-15T10:32:28.624Z,25.80
2023-02-15T10:33:28.561Z,24.60
2023-02-15T10:34:28.555Z,24.00
2023-02-15T10:35:28.560Z,27.80
2023-02-15T10:36:28.531Z,22.50
2023-02-15T10:37:28.512Z,22.10
2023-02-15T10:38:28.520Z,27.20
2023-02-15T10:39:28.502Z,23.60
2023-02-15T10:40:28.492Z,25.80
2023-02-15T10:41:28.457Z,21.30
2023-02-15T10:42:28.495Z,22.90
2023-02-15T10:43:28.434Z,26.10
2023-02-15T10:44:28.439Z,26.60
2023-02-15T10:45:28.425Z,27.50
2023-02-15T10:46:28.431Z,24.80
2023-02-15T10:47:28.394Z,21.90
2023-02-15T10:48:28.386Z,26.70
2023-02-15T10:49:28.388Z,21.50
2023-02-15T10:50:28.370Z,23.10
2023-02-15T10:51:28.349Z,21.90
2023-02-15T10:52:28.346Z,24.90
2023-02-15T10:53:28.348Z,25.90
2023-02-15T10:54:28.371Z,22.70
2023-02-15T10:55:28.323Z,24.20
2023-02-15T10:56:28.304Z,20.70
2023-02-15T10:57:28.289Z,22.10
2023-02-15T10:58:28.292Z,24.50
2023-02-15T10:59:28.289Z,24.30
2023-02-15T11:00:28.270Z,21.60
2023-02-15T11:01:28.475Z,18.00
2023-02-15T11:02:28.240Z,21.50
2023-02-15T11:03:28.238Z,22.90
2023-02-15T11:04:28.240Z,20.50
2023-02-15T11:05:28.219Z,23.60
2023-02-15T11:06:28.203Z,21.70
2023-02-15T11:07:28.189Z,20.40
2023-02-15T11:08:28.204Z,18.40
2023-02-15T11:09:28.196Z,23.00
2023-02-15T11:10:28.155Z,21.40
2023-02-15T11:11:28.154Z,25.80
2023-02-15T11:12:28.144Z,21.10
2023-02-15T11:13:28.123Z,27.00
2023-02-15T11:14:28.116Z,23.30
2023-02-15T11:15:28.137Z,19.80
2023-02-15T11:16:28.115Z,21.00
2023-02-15T11:17:28.089Z,18.90
2023-02-15T11:18:28.089Z,22.80
2023-02-15T11:19:28.060Z,21.30
2023-02-15T11:20:28.053Z,23.50
2023-02-15T11:21:28.056Z,22.20
2023-02-15T11:22:28.047Z,25.70
2023-02-15T11:23:28.021Z,24.60
2023-02-15T11:24:28.024Z,16.30
2023-02-15T11:25:27.996Z,19.80
2023-02-15T11:26:28.006Z,19.50
2023-02-15T11:27:28.037Z,21.30
2023-02-15T11:28:27.969Z,20.70
2023-02-15T11:29:27.977Z,20.90
2023-02-15T11:30:28.028Z,22.40
2023-02-15T11:31:28.071Z,22.60
2023-02-15T11:32:27.924Z,19.60
2023-02-15T11:33:27.940Z,22.10
2023-02-15T11:34:27.915Z,19.30
2023-02-15T11:35:27.895Z,22.10
2023-02-15T11:36:27.890Z,22.70
2023-02-15T11:37:27.869Z,24.30
2023-02-15T11:38:27.959Z,24.60
2023-02-15T11:39:27.880Z,19.90
2023-02-15T11:40:27.850Z,21.30
2023-02-15T11:41:27.839Z,17.80
2023-02-15T11:42:27.820Z,20.00
2023-02-15T11:43:27.803Z,22.30
2023-02-15T11:44:27.857Z,20.80
2023-02-15T11:45:27.792Z,20.60
2023-02-15T11:46:27.867Z,20.60
2023-02-15T11:47:27.788Z,17.70
2023-02-15T11:48:27.755Z,24.40
2023-02-15T11:49:27.756Z,21.60
2023-02-15T11:50:27.825Z,20.40
2023-02-15T11:51:27.738Z,19.70
2023-02-15T11:52:27.721Z,20.00
2023-02-15T11:53:27.723Z,23.00
2023-02-15T11:54:28.594Z,35.30
2023-02-15T11:55:27.687Z,17.70
2023-02-15T11:56:27.705Z,23.90
2023-02-15T11:57:27.668Z,20.00
2023-02-15T11:58:27.672Z,22.30
2023-02-15T11:59:27.668Z,24.50
2023-02-15T12:00:27.641Z,18.90
2023-02-15T12:01:27.643Z,19.40
2023-02-15T12:02:27.720Z,22.20
2023-02-15T12:03:27.698Z,18.70
2023-02-15T12:04:27.619Z,19.50
2023-02-15T12:05:27.580Z,24.60
2023-02-15T12:06:27.587Z,19.80
2023-02-15T12:07:27.569Z,21.10
2023-02-15T12:08:27.556Z,19.10
2023-02-15T12:09:27.561Z,16.40
2023-02-15T12:10:27.540Z,18.80
2023-02-15T12:11:27.529Z,19.40
2023-02-15T12:12:27.540Z,17.40
2023-02-15T12:13:27.506Z,22.10
2023-02-15T12:14:27.514Z,18.70
2023-02-15T12:15:27.488Z,16.40
2023-02-15T12:16:27.540Z,16.90
2023-02-15T12:17:27.453Z,15.40
2023-02-15T12:18:27.455Z,18.80
2023-02-15T12:19:27.455Z,16.50
2023-02-15T12:20:27.426Z,16.20
2023-02-15T12:21:27.768Z,17.20
2023-02-15T12:22:27.432Z,18.80
2023-02-15T12:23:27.408Z,18.10
2023-02-15T12:24:27.387Z,14.70
2023-02-15T12:25:27.373Z,16.50
2023-02-15T12:26:27.382Z,18.10
2023-02-15T12:27:27.346Z,16.10
2023-02-15T12:28:27.350Z,18.20
2023-02-15T12:29:27.340Z,15.30
2023-02-15T12:30:27.380Z,19.20
2023-02-15T12:31:27.465Z,17.20
2023-02-15T12:32:27.438Z,16.80
2023-02-15T12:33:27.291Z,17.20
2023-02-15T12:34:27.295Z,18.50
2023-02-15T12:35:27.284Z,20.20
2023-02-15T12:36:27.269Z,17.20
2023-02-15T12:37:27.253Z,20.30
2023-02-15T12:38:27.248Z,17.50
2023-02-15T12:39:27.228Z,19.30
2023-02-15T12:40:28.094Z,14.30
2023-02-15T12:41:27.247Z,17.60
2023-02-15T12:42:27.209Z,18.70
2023-02-15T12:43:27.199Z,17.10
2023-02-15T12:44:27.184Z,19.50
2023-02-15T12:45:27.208Z,20.80
2023-02-15T12:46:27.253Z,13.50
2023-02-15T12:47:30.190Z,19.20
2023-02-15T12:48:27.136Z,18.00
2023-02-15T12:49:27.140Z,20.40
2023-02-15T12:50:27.342Z,22.60
2023-02-15T12:51:27.097Z,17.10
2023-02-15T12:52:27.107Z,19.50